Time;durP1;ratioP1;P1;durP2;ratioP2;P2;SDS_P1;SDS_P2;PMS_P1;PMS_P2;Temp;Humidity;BMP_temperature;BMP_pressure;BME280_temperature;BME280_humidity;BME280_pressure;Samples;Min_cycle;Max_cycle;Signal;HPM_P1;HPM_P2
2023/01/29 00:01:06;;;;;;;27.45;3.40;;;;;;;7.94;92.88;101506.41;5055109;28;20123;-68
2023/01/29 00:03:32;;;;;;;23.63;3.20;;;;;;;7.93;93.12;101492.19;5054189;28;20041;-68
2023/01/29 00:06:03;;;;;;;28.77;4.00;;;;;;;7.97;93.03;101501.56;5055673;28;20481;-68
2023/01/29 00:08:29;;;;;;;27.25;3.47;;;;;;;7.98;92.98;101499.75;5054635;28;20017;-68
2023/01/29 00:11:00;;;;;;;30.77;3.67;;;;;;;7.84;93.09;101493.16;5054470;28;20043;-68
2023/01/29 00:13:25;;;;;;;25.33;3.80;;;;;;;7.87;93.99;101498.19;5055097;28;20033;-68
2023/01/29 00:15:58;;;;;;;24.48;3.63;;;;;;;7.78;95.16;101496.50;5055992;28;20377;-68
2023/01/29 00:18:25;;;;;;;26.60;3.33;;;;;;;7.85;95.45;101492.19;5055520;28;20045;-68
2023/01/29 00:20:51;;;;;;;26.23;3.53;;;;;;;7.96;94.65;101488.34;5057817;28;20440;-68
2023/01/29 00:23:17;;;;;;;22.55;2.92;;;;;;;7.98;94.56;101481.81;5059059;28;20270;-68
2023/01/29 00:25:43;;;;;;;27.75;3.33;;;;;;;8.06;94.35;101472.09;5056279;28;20025;-68
2023/01/29 00:28:09;;;;;;;33.60;3.30;;;;;;;8.07;94.05;101471.09;5055918;28;20039;-68
2023/01/29 00:30:36;;;;;;;30.30;3.85;;;;;;;7.97;94.21;101442.59;5037321;28;20040;-68
2023/01/29 00:33:02;;;;;;;37.22;5.03;;;;;;;8.02;94.73;101468.09;5055209;28;20041;-68
2023/01/29 00:35:27;;;;;;;24.50;3.17;;;;;;;8.09;94.48;101477.97;5054924;28;20037;-68
2023/01/29 00:37:56;;;;;;;24.70;3.30;;;;;;;8.10;94.75;101478.81;5055713;28;20046;-69
2023/01/29 00:40:22;;;;;;;30.95;3.72;;;;;;;8.06;94.46;101480.16;5054126;28;20106;-68
2023/01/29 00:45:32;;;;;;;26.92;3.58;;;;;;;8.11;94.44;101477.78;5055038;28;20031;-68
2023/01/29 00:47:58;;;;;;;28.17;3.40;;;;;;;8.09;94.57;101464.56;5055257;28;20020;-68
2023/01/29 00:50:23;;;;;;;35.22;4.00;;;;;;;8.15;94.21;101461.22;5055055;28;20345;-68
2023/01/29 00:52:50;;;;;;;30.80;3.72;;;;;;;8.11;94.90;101462.56;5036953;28;20032;-68
2023/01/29 00:55:16;;;;;;;28.50;4.05;;;;;;;8.10;94.57;101468.09;5053461;28;20025;-68
2023/01/29 00:57:41;;;;;;;36.17;4.15;;;;;;;8.01;95.24;101464.53;5053833;28;20086;-68
2023/01/29 01:00:10;;;;;;;39.13;4.32;;;;;;;8.14;94.88;101472.09;5055681;28;20029;-68
2023/01/29 01:05:20;;;;;;;34.50;4.03;;;;;;;8.22;93.86;101477.47;5056239;28;20028;-68
2023/01/29 01:07:47;;;;;;;28.63;3.78;;;;;;;8.11;95.29;101472.44;5056643;28;20395;-68
2023/01/29 01:10:23;;;;;;;31.52;3.83;;;;;;;7.92;94.91;101434.25;5055526;28;20044;-68
2023/01/29 01:12:54;;;;;;;28.20;4.05;;;;;;;8.24;94.04;101454.88;5055727;28;20037;-68
2023/01/29 01:15:21;;;;;;;39.03;4.53;;;;;;;8.16;94.47;101464.75;5059052;28;20025;-68
2023/01/29 01:17:47;;;;;;;29.92;4.25;;;;;;;8.14;94.92;101467.56;5062905;28;20083;-68
2023/01/29 01:20:14;;;;;;;38.33;4.43;;;;;;;8.20;94.43;101460.72;5060005;28;20081;-68
2023/01/29 01:22:40;;;;;;;36.83;4.55;;;;;;;8.18;94.63;101454.69;5054520;28;20041;-68
2023/01/29 01:25:05;;;;;;;29.33;3.90;;;;;;;8.15;94.96;101436.25;5054740;28;20040;-68
2023/01/29 01:27:31;;;;;;;26.63;3.45;;;;;;;8.06;94.92;101426.53;5054189;28;20040;-68
2023/01/29 01:29:57;;;;;;;35.10;4.82;;;;;;;8.15;95.06;101447.81;5037519;28;20031;-68
2023/01/29 01:32:22;;;;;;;48.35;5.07;;;;;;;8.18;95.44;101441.28;5053963;28;20033;-68
2023/01/29 01:34:47;;;;;;;28.45;3.38;;;;;;;8.19;95.42;101430.38;5055780;28;20130;-68
2023/01/29 01:37:14;;;;;;;28.63;3.80;;;;;;;8.24;94.83;101437.91;5056768;28;20338;-69
2023/01/29 01:39:39;;;;;;;33.95;4.18;;;;;;;8.08;95.98;101452.19;5052704;28;20020;-68
2023/01/29 01:42:11;;;;;;;33.97;3.80;;;;;;;8.14;96.00;101450.66;5053774;28;20033;-68
2023/01/29 01:44:49;;;;;;;43.85;4.18;;;;;;;7.88;95.29;101398.06;5054228;28;20040;-68
2023/01/29 01:47:19;;;;;;;39.13;4.03;;;;;;;8.09;96.21;101453.00;5053198;28;20024;-68
2023/01/29 01:49:46;;;;;;;29.83;5.35;;;;;;;8.14;96.19;101443.44;5054117;28;20060;-68
2023/01/29 01:52:13;;;;;;;29.27;4.07;;;;;;;8.16;95.40;101440.59;5054158;28;20501;-69
2023/01/29 01:54:38;;;;;;;30.63;3.72;;;;;;;8.18;95.45;101420.69;5053520;28;20056;-68
2023/01/29 01:57:14;;;;;;;36.60;3.75;;;;;;;8.06;95.87;101416.66;5053801;28;20361;-68
2023/01/29 01:59:45;;;;;;;38.60;4.35;;;;;;;8.17;95.82;101416.31;5053790;28;20025;-68
2023/01/29 02:10:38;;;;;;;36.35;4.25;;;;;;;8.20;95.36;101402.56;5053693;28;20085;-68
2023/01/29 02:13:06;;;;;;;32.00;4.32;;;;;;;8.20;96.06;101389.16;5053432;28;20052;-68
2023/01/29 02:15:32;;;;;;;32.72;3.85;;;;;;;8.15;96.31;101388.84;5052332;28;20063;-68
2023/01/29 02:17:58;;;;;;;38.10;4.10;;;;;;;8.12;96.89;101380.31;5052246;28;20055;-68
2023/01/29 02:20:28;;;;;;;35.70;4.03;;;;;;;8.16;97.21;101389.69;5052275;28;20029;-68
2023/01/29 02:22:54;;;;;;;31.35;3.85;;;;;;;8.16;96.57;101392.34;5053985;28;20090;-68
2023/01/29 02:25:49;;;;;;;32.90;3.67;;;;;;;8.17;97.15;101391.34;5053264;28;20036;-68
2023/01/29 02:28:24;;;;;;;39.20;4.05;;;;;;;8.17;97.51;101392.19;5052110;28;20178;-68
2023/01/29 02:31:05;;;;;;;31.70;3.90;;;;;;;8.14;97.60;101403.22;5053858;28;20032;-68
2023/01/29 02:33:42;;;;;;;37.10;4.82;;;;;;;8.14;97.43;101399.72;5052207;28;20407;-68
2023/01/29 02:36:17;;;;;;;35.03;3.75;;;;;;;8.06;98.41;101400.56;5054244;28;20048;-68
2023/01/29 02:39:14;;;;;;;34.63;4.50;;;;;;;8.11;97.82;101395.56;5054824;28;20159;-68
2023/01/29 02:41:49;;;;;;;39.13;5.38;;;;;;;8.11;98.50;101370.56;5052637;28;20047;-68
2023/01/29 02:44:37;;;;;;;30.10;3.67;;;;;;;8.07;98.62;101372.75;5052045;28;20052;-69
2023/01/29 02:47:13;;;;;;;27.27;3.75;;;;;;;8.10;98.59;101374.25;5058409;28;20032;-69
2023/01/29 02:49:55;;;;;;;41.40;4.70;;;;;;;8.16;98.02;101368.22;5054647;28;20110;-68
2023/01/29 02:52:27;;;;;;;35.47;4.15;;;;;;;8.24;96.91;101370.88;5053766;28;20033;-68
2023/01/29 02:55:08;;;;;;;32.95;4.30;;;;;;;7.96;96.93;101314.97;5054504;28;20017;-69
2023/01/29 02:57:41;;;;;;;34.15;4.30;;;;;;;8.27;96.21;101341.06;5052049;28;20025;-69
2023/01/29 03:00:16;;;;;;;30.83;3.88;;;;;;;8.19;97.47;101343.78;5052147;28;20505;-68
2023/01/29 03:02:53;;;;;;;34.42;4.05;;;;;;;8.31;97.19;101345.09;5052891;28;20028;-68
2023/01/29 03:05:29;;;;;;;32.10;3.20;;;;;;;8.30;97.17;101345.25;5053274;28;20050;-68
2023/01/29 03:08:00;;;;;;;28.60;3.33;;;;;;;8.30;96.62;101354.13;5052775;28;20033;-69
2023/01/29 03:10:35;;;;;;;36.15;4.35;;;;;;;8.25;97.20;101351.13;5055134;28;20503;-69
2023/01/29 03:13:17;;;;;;;28.70;4.00;;;;;;;8.29;96.74;101362.34;5062465;28;20021;-69
2023/01/29 03:15:50;;;;;;;33.30;3.92;;;;;;;8.31;97.14;101352.28;5057114;28;20052;-68
2023/01/29 03:18:18;;;;;;;32.35;3.45;;;;;;;8.36;96.56;101344.56;5058728;28;20081;-68
2023/01/29 03:20:49;;;;;;;29.92;4.60;;;;;;;8.26;96.34;101328.66;5060427;28;20028;-68
2023/01/29 03:23:36;;;;;;;29.02;3.45;;;;;;;8.32;96.19;101335.19;5058142;28;20036;-69
2023/01/29 03:34:23;;;;;;;32.67;3.42;;;;;;;8.13;96.60;101309.59;5055531;28;20048;-68
2023/01/29 03:37:02;;;;;;;27.33;3.50;;;;;;;8.04;97.46;101294.53;5057333;28;20049;-68
2023/01/29 03:39:28;;;;;;;34.00;3.67;;;;;;;8.09;97.93;101308.28;5056088;28;20067;-69
2023/01/29 03:42:03;;;;;;;37.22;3.72;;;;;;;8.00;97.98;101284.16;5057279;28;20020;-68
2023/01/29 03:44:31;;;;;;;;;;;;;;;8.05;99.07;101306.94;5057293;28;20032;-68
2023/01/29 03:47:26;;;;;;;33.63;4.32;;;;;;;8.12;98.30;101307.94;5055295;28;19998;-68
2023/01/29 03:50:10;;;;;;;38.57;4.20;;;;;;;8.16;98.61;101317.31;5037041;28;20041;-68
2023/01/29 03:52:58;;;;;;;34.40;5.20;;;;;;;8.14;98.28;101312.09;5054458;28;20403;-68
2023/01/29 03:55:35;;;;;;;36.10;3.72;;;;;;;8.14;98.74;101311.25;5058515;28;20036;-68
2023/01/29 03:58:15;;;;;;;48.78;5.35;;;;;;;8.00;98.88;101302.91;5062056;28;20423;-69
2023/01/29 04:00:50;;;;;;;33.75;4.72;;;;;;;8.05;99.20;101306.94;5056772;28;20036;-68
2023/01/29 04:03:18;;;;;;;36.47;5.13;;;;;;;7.97;99.44;101300.56;5057000;28;20490;-68
2023/01/29 04:06:12;;;;;;;27.27;3.70;;;;;;;7.90;99.44;101259.38;5058195;28;20033;-68
2023/01/29 04:08:53;;;;;;;32.63;3.65;;;;;;;7.84;99.63;101253.88;5053149;28;20044;-69
2023/01/29 04:11:22;;;;;;;39.53;4.40;;;;;;;7.92;99.86;101269.94;5055861;28;20029;-68
2023/01/29 04:13:48;;;;;;;34.05;4.65;;;;;;;7.98;99.52;101286.19;5055614;28;20434;-68
2023/01/29 04:16:21;;;;;;;27.05;2.83;;;;;;;7.96;99.22;101285.50;5054929;28;20033;-68
2023/01/29 04:18:47;;;;;;;26.70;3.28;;;;;;;7.95;99.32;101283.84;5055421;28;20048;-68
2023/01/29 04:21:14;;;;;;;33.05;3.45;;;;;;;8.05;98.84;101275.63;5055755;28;20090;-68
2023/01/29 04:23:40;;;;;;;33.85;3.53;;;;;;;8.08;97.76;101274.41;5037827;28;20525;-69
2023/01/29 04:26:08;;;;;;;34.75;3.55;;;;;;;8.04;98.15;101273.09;5055466;28;20033;-69
2023/01/29 04:28:52;;;;;;;24.90;3.63;;;;;;;7.88;98.83;101266.78;5054420;28;20021;-68
2023/01/29 04:31:22;;;;;;;45.13;4.03;;;;;;;7.91;98.33;101242.31;5054138;28;20051;-68
2023/01/29 04:34:05;;;;;;;26.38;3.75;;;;;;;7.95;98.88;101257.03;5054171;28;20037;-68
2023/01/29 04:36:46;;;;;;;28.67;2.65;;;;;;;8.08;97.81;101263.69;5055330;28;20039;-68
2023/01/29 04:39:20;;;;;;;36.45;3.90;;;;;;;8.10;97.67;101245.59;5055378;28;20084;-68
2023/01/29 04:42:06;;;;;;;27.83;3.95;;;;;;;8.14;98.28;101252.28;5054246;28;20044;-68
2023/01/29 04:44:34;;;;;;;28.48;4.10;;;;;;;8.23;97.20;101254.78;5053740;28;20025;-68
2023/01/29 04:47:23;;;;;;;30.73;3.35;;;;;;;8.21;98.38;101239.88;5055589;28;20025;-68
2023/01/29 04:50:09;;;;;;;29.23;3.95;;;;;;;8.22;98.14;101233.50;5053945;28;20055;-69
2023/01/29 04:52:51;;;;;;;40.35;4.38;;;;;;;8.25;97.91;101211.72;5053622;28;20028;-69
2023/01/29 04:55:29;;;;;;;42.67;4.82;;;;;;;8.35;97.25;101204.31;5055965;28;20044;-68
2023/01/29 04:58:35;;;;;;;27.75;3.80;;;;;;;8.40;97.32;101204.63;5054082;28;20040;-69
2023/01/29 05:01:05;;;;;;;36.00;4.05;;;;;;;8.36;97.56;101203.28;5040833;28;20033;-68
2023/01/29 05:03:32;;;;;;;38.17;4.05;;;;;;;8.39;97.72;101200.28;5055487;28;20602;-69
2023/01/29 05:06:00;;;;;;;28.63;4.28;;;;;;;8.34;97.85;101199.94;5056899;28;20048;-68
2023/01/29 05:08:28;;;;;;;39.42;4.05;;;;;;;8.30;98.13;101200.47;5056367;28;20113;-68
2023/01/29 05:10:56;;;;;;;30.73;3.65;;;;;;;8.34;97.38;101193.75;5055746;28;20471;-69
2023/01/29 05:13:24;;;;;;;37.70;3.92;;;;;;;7.97;98.85;101171.94;5055879;28;20056;-69
2023/01/29 05:15:59;;;;;;;35.88;4.07;;;;;;;8.07;98.69;101173.59;5054974;28;20045;-68
2023/01/29 05:18:24;;;;;;;43.65;5.72;;;;;;;8.00;99.47;101181.47;5052864;28;20049;-68
2023/01/29 05:20:51;;;;;;;36.42;4.00;;;;;;;8.07;98.75;101190.50;5054328;28;20025;-69
2023/01/29 05:23:18;;;;;;;34.13;4.78;;;;;;;8.14;99.16;101187.97;5053825;28;20033;-68
2023/01/29 05:25:44;;;;;;;50.05;4.35;;;;;;;7.97;99.97;101181.81;5054347;28;20028;-68
2023/01/29 05:28:16;;;;;;;33.83;4.07;;;;;;;8.02;99.75;101181.31;5054836;28;20484;-68
2023/01/29 05:30:49;;;;;;;38.78;4.10;;;;;;;7.89;100.00;101176.50;5054598;28;20049;-68
2023/01/29 05:33:17;;;;;;;34.75;4.18;;;;;;;7.89;100.00;101169.31;5056175;28;20056;-68
2023/01/29 05:35:43;;;;;;;37.58;4.03;;;;;;;7.96;100.00;101169.44;5054837;28;20109;-68
2023/01/29 05:38:09;;;;;;;29.58;3.78;;;;;;;7.81;100.00;101182.72;5056065;28;20463;-68
2023/01/29 05:40:35;;;;;;;36.00;4.90;;;;;;;7.85;100.00;101180.56;5052518;28;20028;-68
2023/01/29 05:43:00;;;;;;;40.40;4.38;;;;;;;7.84;100.00;101182.38;5036349;28;20037;-68
2023/01/29 05:45:26;;;;;;;36.67;4.50;;;;;;;7.92;100.00;101187.72;5052680;28;20033;-68
2023/01/29 05:47:59;;;;;;;30.50;3.58;;;;;;;7.85;100.00;101153.75;5053418;28;20094;-68
2023/01/29 05:50:25;;;;;;;36.10;5.13;;;;;;;7.85;100.00;101175.19;5053002;28;20507;-68
2023/01/29 05:53:01;;;;;;;32.78;4.13;;;;;;;7.86;100.00;101144.69;5052670;28;20321;-68
2023/01/29 05:55:31;;;;;;;31.65;4.35;;;;;;;7.96;100.00;101148.84;5051924;28;20487;-69
2023/01/29 05:57:56;;;;;;;35.60;4.35;;;;;;;7.96;100.00;101142.66;5054330;28;20051;-68
2023/01/29 06:00:22;;;;;;;32.55;4.03;;;;;;;7.93;100.00;101141.16;5053824;28;20112;-68
2023/01/29 06:02:47;;;;;;;35.85;3.50;;;;;;;8.03;100.00;101151.66;5054279;28;20029;-68
2023/01/29 06:05:13;;;;;;;31.45;3.97;;;;;;;8.10;100.00;101149.13;5052962;28;20040;-69
2023/01/29 06:07:43;;;;;;;25.20;3.50;;;;;;;8.15;100.00;101131.50;5052513;28;20083;-68
2023/01/29 06:10:11;;;;;;;42.85;4.00;;;;;;;8.13;100.00;101132.69;5036997;28;20086;-69
2023/01/29 06:12:36;;;;;;;38.60;4.68;;;;;;;8.21;100.00;101146.03;5052944;28;20091;-68
2023/01/29 06:15:02;;;;;;;37.53;5.28;;;;;;;8.24;100.00;101145.69;5052067;28;20479;-68
2023/01/29 06:17:29;;;;;;;33.53;3.67;;;;;;;8.16;100.00;101145.75;5035348;28;20025;-68
2023/01/29 06:19:54;;;;;;;21.23;2.60;;;;;;;8.06;100.00;101151.31;5052619;28;20049;-68
2023/01/29 06:22:20;;;;;;;31.95;3.78;;;;;;;8.12;100.00;101155.97;5052729;28;20037;-68
2023/01/29 06:24:46;;;;;;;25.38;2.90;;;;;;;7.88;100.00;101139.97;5051746;28;20083;-68
2023/01/29 06:27:12;;;;;;;24.38;3.60;;;;;;;8.24;100.00;101140.31;5018445;28;20509;-68
2023/01/29 06:29:37;;;;;;;16.58;2.45;;;;;;;7.98;100.00;101146.00;5051801;28;20029;-68
2023/01/29 06:32:03;;;;;;;26.80;3.15;;;;;;;8.07;100.00;101147.63;5052448;28;20056;-68
2023/01/29 06:34:28;;;;;;;22.60;2.72;;;;;;;8.05;100.00;101143.47;5052841;28;20033;-68
2023/01/29 06:36:53;;;;;;;30.38;3.60;;;;;;;8.05;100.00;101125.53;5054047;28;20036;-69
2023/01/29 06:39:19;;;;;;;30.98;5.18;;;;;;;7.88;100.00;101114.06;5052605;28;20483;-68
2023/01/29 06:41:45;;;;;;;30.58;4.00;;;;;;;7.70;100.00;101105.41;5036248;28;20436;-68
2023/01/29 06:44:10;;;;;;;28.00;3.95;;;;;;;7.80;100.00;101110.56;5052179;28;20460;-69
2023/01/29 06:46:36;;;;;;;22.10;3.28;;;;;;;7.69;100.00;101099.22;5035702;28;20111;-69
2023/01/29 06:49:01;;;;;;;25.58;3.53;;;;;;;7.85;100.00;101101.00;5051996;28;20071;-68
2023/01/29 06:51:26;;;;;;;23.63;3.35;;;;;;;7.83;100.00;101089.63;5052939;28;20029;-68
2023/01/29 06:53:54;;;;;;;29.75;3.47;;;;;;;7.83;100.00;101086.94;5052477;28;20029;-68
2023/01/29 06:56:21;;;;;;;22.85;3.40;;;;;;;7.84;100.00;101085.91;5051134;28;20395;-66
2023/01/29 06:58:46;;;;;;;21.05;3.38;;;;;;;7.69;100.00;101090.34;5053212;28;20029;-69
2023/01/29 07:01:12;;;;;;;23.52;2.80;;;;;;;7.80;100.00;101076.56;5055233;28;20036;-66
2023/01/29 07:03:37;;;;;;;24.15;3.42;;;;;;;7.68;100.00;101052.03;5053709;28;20025;-70
2023/01/29 07:06:04;;;;;;;23.00;2.70;;;;;;;7.85;100.00;101068.03;5054772;28;20032;-68
2023/01/29 07:08:30;;;;;;;21.02;2.50;;;;;;;7.79;100.00;101063.38;5052142;28;20029;-68
2023/01/29 07:10:59;;;;;;;28.30;3.40;;;;;;;7.96;100.00;101060.41;5051382;28;20039;-68
2023/01/29 07:13:24;;;;;;;29.58;3.80;;;;;;;7.75;100.00;101052.16;5051614;28;20039;-70
2023/01/29 07:15:50;;;;;;;26.27;3.28;;;;;;;7.93;100.00;101071.47;5053213;28;20033;-66
2023/01/29 07:18:15;;;;;;;20.52;2.53;;;;;;;7.82;100.00;101068.38;5051651;28;20032;-68
2023/01/29 07:20:42;;;;;;;30.85;3.08;;;;;;;8.07;100.00;101055.66;5052777;28;20037;-66
2023/01/29 07:23:12;;;;;;;25.75;3.30;;;;;;;8.02;100.00;101031.25;5051654;28;20025;-66
2023/01/29 07:25:38;;;;;;;35.22;3.33;;;;;;;8.15;100.00;101051.09;5034932;28;20091;-66
2023/01/29 07:28:05;;;;;;;29.42;3.58;;;;;;;8.23;100.00;101060.94;5034654;28;20091;-66
2023/01/29 07:30:30;;;;;;;28.98;4.25;;;;;;;7.98;100.00;101052.22;5050970;28;20044;-69
2023/01/29 07:33:07;;;;;;;17.88;2.33;;;;;;;8.03;100.00;101028.38;5051051;28;20479;-67
2023/01/29 07:35:39;;;;;;;19.23;3.92;;;;;;;8.23;100.00;101043.00;5052348;28;20029;-68
2023/01/29 07:38:06;;;;;;;22.00;3.25;;;;;;;8.10;100.00;101044.59;5051071;28;20028;-67
2023/01/29 07:40:31;;;;;;;19.00;2.60;;;;;;;8.16;100.00;101036.69;5051479;28;20021;-68
2023/01/29 07:43:02;;;;;;;21.20;3.03;;;;;;;8.21;100.00;101038.81;5052606;28;20031;-67
2023/01/29 07:45:28;;;;;;;27.05;3.35;;;;;;;8.25;100.00;101048.19;5052507;28;20029;-67
2023/01/29 07:47:55;;;;;;;28.65;3.25;;;;;;;8.33;99.68;101048.13;5052857;28;20037;-68
2023/01/29 07:50:22;;;;;;;23.27;3.10;;;;;;;8.41;99.70;101049.94;5052264;28;20138;-67
2023/01/29 07:52:48;;;;;;;38.20;3.65;;;;;;;8.47;99.00;101038.50;5050758;28;20398;-68
2023/01/29 07:55:14;;;;;;;25.48;2.85;;;;;;;8.35;99.89;101031.88;5050425;28;20124;-68
2023/01/29 07:57:40;;;;;;;24.00;2.92;;;;;;;8.22;100.00;101041.34;5052521;28;20029;-68
2023/01/29 08:00:06;;;;;;;29.08;3.55;;;;;;;8.25;100.00;101032.09;5052448;28;20399;-68
2023/01/29 08:02:31;;;;;;;27.10;2.88;;;;;;;8.35;100.00;101039.91;5051347;28;20063;-67
2023/01/29 08:04:56;;;;;;;26.77;2.95;;;;;;;8.27;100.00;101027.38;5037843;28;20470;-68
2023/01/29 08:07:22;;;;;;;21.95;3.08;;;;;;;8.20;100.00;101015.72;5056195;28;20033;-68
2023/01/29 08:09:47;;;;;;;18.85;2.83;;;;;;;8.24;100.00;101043.81;5055065;28;20037;-68
2023/01/29 08:12:13;;;;;;;19.98;2.95;;;;;;;8.20;100.00;101026.44;5055289;28;20044;-67
2023/01/29 08:14:39;;;;;;;16.38;2.55;;;;;;;8.07;100.00;100994.03;5054718;28;20032;-67
2023/01/29 08:17:06;;;;;;;12.90;2.75;;;;;;;8.02;100.00;100999.94;5055750;28;20056;-68
2023/01/29 08:19:31;;;;;;;19.10;2.88;;;;;;;8.10;100.00;100988.31;5055690;28;20045;-68
2023/01/29 08:21:56;;;;;;;18.83;2.20;;;;;;;8.12;99.62;100980.94;5053998;28;20094;-68
2023/01/29 08:24:22;;;;;;;19.98;2.80;;;;;;;8.34;98.78;101003.38;5054217;28;20419;-68
2023/01/29 08:26:49;;;;;;;24.35;3.50;;;;;;;8.33;98.53;100996.34;5055880;28;20060;-67
2023/01/29 08:29:14;;;;;;;19.08;2.72;;;;;;;8.32;98.05;100995.53;5054949;28;20029;-67
2023/01/29 08:31:40;;;;;;;27.80;2.92;;;;;;;8.29;98.39;100973.59;5054913;28;20040;-68
2023/01/29 08:34:05;;;;;;;26.77;3.90;;;;;;;8.32;97.77;100966.03;5055134;28;20048;-68
2023/01/29 08:36:31;;;;;;;23.20;2.85;;;;;;;8.37;97.60;100970.84;5054784;28;20035;-68
2023/01/29 08:38:56;;;;;;;17.52;2.17;;;;;;;8.34;97.88;100979.25;5054692;28;20073;-68
2023/01/29 08:41:22;;;;;;;12.25;2.15;;;;;;;8.17;98.00;100987.41;5054830;28;20028;-67
2023/01/29 08:43:47;;;;;;;21.23;2.45;;;;;;;8.39;97.74;100983.09;5037584;28;20444;-68
2023/01/29 08:46:12;;;;;;;17.70;2.70;;;;;;;8.36;97.44;100990.63;5055194;28;20546;-68
2023/01/29 08:48:38;;;;;;;19.83;3.08;;;;;;;8.42;97.57;100993.47;5037540;28;20198;-68
2023/01/29 08:51:04;;;;;;;18.88;2.78;;;;;;;8.34;97.73;100985.44;5053748;28;20029;-68
2023/01/29 08:53:30;;;;;;;24.88;3.20;;;;;;;8.40;97.42;100995.47;5054945;28;20037;-68
2023/01/29 08:55:56;;;;;;;21.58;3.92;;;;;;;8.27;97.71;100992.53;5055209;28;20566;-68
2023/01/29 08:58:21;;;;;;;28.02;3.33;;;;;;;8.26;97.51;100982.81;5053681;28;20127;-68
2023/01/29 09:00:46;;;;;;;25.42;2.85;;;;;;;8.27;98.49;100995.22;5036560;28;20032;-68
2023/01/29 09:03:12;;;;;;;17.05;2.28;;;;;;;8.34;97.62;100995.31;5053520;28;20055;-68
2023/01/29 09:05:39;;;;;;;17.92;2.08;;;;;;;8.23;98.11;100984.00;5053262;28;20127;-69
2023/01/29 09:08:06;;;;;;;19.35;2.53;;;;;;;8.36;98.22;100986.09;5053256;28;20029;-68
2023/01/29 09:10:32;;;;;;;17.98;2.65;;;;;;;8.38;97.64;101007.41;5054249;28;20128;-69
2023/01/29 09:12:57;;;;;;;23.65;2.92;;;;;;;8.35;97.65;101003.22;5053073;28;20072;-68
2023/01/29 09:15:23;;;;;;;14.52;1.95;;;;;;;8.34;97.76;101003.38;5052200;28;20384;-68
2023/01/29 09:17:48;;;;;;;18.98;1.95;;;;;;;8.39;97.30;100993.00;5053122;28;20032;-68
2023/01/29 09:20:15;;;;;;;18.55;2.70;;;;;;;8.54;96.30;101009.09;5052933;28;20049;-68
2023/01/29 09:22:41;;;;;;;21.63;3.05;;;;;;;8.59;96.80;101004.88;5036269;28;20040;-68
2023/01/29 09:25:07;;;;;;;22.00;2.50;;;;;;;8.49;97.35;101008.84;5054425;28;20515;-68
2023/01/29 09:27:32;;;;;;;22.00;2.72;;;;;;;8.52;97.06;101016.53;5054162;28;20060;-68
2023/01/29 09:29:57;;;;;;;17.75;2.80;;;;;;;8.28;97.24;101023.72;5053239;28;20483;-69
2023/01/29 09:32:23;;;;;;;20.92;3.17;;;;;;;8.49;97.02;101041.00;5053966;28;20052;-69
2023/01/29 09:34:48;;;;;;;21.80;2.92;;;;;;;8.60;96.00;101029.84;5054203;28;20056;-68
2023/01/29 09:37:16;;;;;;;21.48;3.85;;;;;;;8.78;95.23;101011.59;5052691;28;20044;-68
2023/01/29 09:39:42;;;;;;;19.88;3.78;;;;;;;8.81;95.33;101013.91;5054541;28;20025;-68
2023/01/29 09:42:27;;;;;;;16.38;3.03;;;;;;;8.83;94.98;101014.53;5054282;28;20367;-68
2023/01/29 09:45:05;;;;;;;17.55;2.28;;;;;;;8.76;95.10;101010.91;5051809;28;20512;-67
2023/01/29 09:47:34;;;;;;;18.23;2.53;;;;;;;8.64;94.65;100966.75;5054099;28;20098;-68
2023/01/29 09:50:38;;;;;;;18.13;2.90;;;;;;;8.93;94.34;101009.75;5053196;28;20174;-67
2023/01/29 09:53:17;;;;;;;21.30;2.45;;;;;;;8.86;93.88;100990.03;5053986;28;20035;-68
2023/01/29 09:55:58;;;;;;;22.85;2.50;;;;;;;8.93;94.22;100990.94;5054284;28;20108;-67
2023/01/29 09:58:30;;;;;;;17.92;2.30;;;;;;;8.98;94.36;100992.28;5054235;28;20036;-68
2023/01/29 10:01:17;;;;;;;16.67;2.28;;;;;;;8.98;93.91;100984.22;5054084;28;20033;-68
2023/01/29 10:04:03;;;;;;;19.48;2.42;;;;;;;9.01;94.30;100987.38;5054421;28;20100;-68
2023/01/29 10:06:56;;;;;;;19.15;3.28;;;;;;;9.01;94.35;100987.38;5053694;28;20035;-67
2023/01/29 10:09:43;;;;;;;25.77;3.53;;;;;;;9.02;94.30;100983.66;5053213;28;20029;-67
2023/01/29 10:12:38;;;;;;;22.92;3.25;;;;;;;9.14;93.81;100982.19;5053290;28;20033;-67
2023/01/29 10:15:26;;;;;;;18.38;3.83;;;;;;;9.12;93.31;100984.22;5053741;28;20089;-68
2023/01/29 10:18:10;;;;;;;23.40;2.83;;;;;;;9.08;94.59;100976.72;5051984;28;20032;-68
2023/01/29 10:20:36;;;;;;;18.67;3.03;;;;;;;8.96;94.69;100962.91;5053443;28;20049;-68
2023/01/29 10:23:09;;;;;;;14.90;2.35;;;;;;;9.01;94.86;100957.03;5052894;28;20344;-68
2023/01/29 10:25:39;;;;;;;22.83;2.50;;;;;;;9.10;94.96;100942.47;5053368;28;20033;-68
2023/01/29 10:28:16;;;;;;;19.35;3.33;;;;;;;9.18;94.09;100940.53;5052847;28;20025;-68
2023/01/29 10:30:47;;;;;;;19.02;3.10;;;;;;;9.24;93.68;100927.34;5053754;28;20028;-67
2023/01/29 10:33:18;;;;;;;23.67;2.92;;;;;;;9.21;94.17;100920.53;5053699;28;20033;-67
2023/01/29 10:35:48;;;;;;;23.55;2.58;;;;;;;9.16;94.03;100915.69;5054421;28;20658;-68
2023/01/29 10:38:32;;;;;;;19.98;2.80;;;;;;;9.08;94.09;100913.13;5053586;28;20016;-68
2023/01/29 10:41:00;;;;;;;20.55;2.80;;;;;;;9.09;94.87;100900.53;5053264;28;20116;-68
2023/01/29 10:43:43;;;;;;;19.48;3.03;;;;;;;8.93;94.54;100888.97;5053128;28;20025;-68
2023/01/29 10:46:08;;;;;;;21.25;2.72;;;;;;;9.08;94.92;100899.72;5052963;28;20250;-68
2023/01/29 10:49:15;;;;;;;25.90;2.67;;;;;;;9.21;93.76;100893.69;5052463;28;20021;-67
2023/01/29 10:52:18;;;;;;;19.48;2.60;;;;;;;9.21;93.72;100882.13;5045021;28;20032;-69
2023/01/29 10:54:46;;;;;;;17.52;2.70;;;;;;;9.21;93.87;100874.06;5051633;28;20028;-67
2023/01/29 10:57:38;;;;;;;22.83;2.90;;;;;;;9.26;93.51;100874.31;5053183;28;20033;-68
2023/01/29 11:00:14;;;;;;;22.83;3.90;;;;;;;9.31;93.65;100856.63;5050766;28;20391;-69
2023/01/29 11:02:45;;;;;;;21.73;2.40;;;;;;;9.31;93.63;100859.31;5051909;28;20036;-67
2023/01/29 11:05:25;;;;;;;16.67;2.45;;;;;;;9.32;93.55;100838.66;5052188;28;20127;-68
2023/01/29 11:08:01;;;;;;;19.10;2.75;;;;;;;9.39;93.25;100831.50;5051825;28;20407;-68
2023/01/29 11:10:28;;;;;;;27.02;4.75;;;;;;;9.38;93.33;100827.97;5052785;28;20044;-68
2023/01/29 11:12:54;;;;;;;23.25;3.83;;;;;;;9.26;93.68;100825.97;5052594;28;20024;-66
2023/01/29 11:15:25;;;;;;;24.73;4.78;;;;;;;9.26;93.67;100824.13;5053218;28;20032;-67
2023/01/29 11:18:01;;;;;;;29.10;3.55;;;;;;;9.22;93.32;100822.84;5051614;28;20344;-68
2023/01/29 11:20:28;;;;;;;20.23;2.88;;;;;;;9.24;93.30;100814.59;5034622;28;20504;-67
2023/01/29 11:22:55;;;;;;;21.33;3.00;;;;;;;9.20;92.85;100808.75;5051306;28;20032;-68
2023/01/29 11:25:21;;;;;;;21.45;2.83;;;;;;;9.11;93.25;100789.28;5052515;28;20032;-68
2023/01/29 11:27:50;;;;;;;21.50;2.88;;;;;;;9.00;93.33;100772.81;5051855;28;20143;-69
2023/01/29 11:30:26;;;;;;;23.25;2.40;;;;;;;9.10;92.85;100782.22;5053554;28;20124;-69
2023/01/29 11:33:17;;;;;;;30.08;2.83;;;;;;;8.83;92.33;100743.53;5051977;28;20573;-68
2023/01/29 11:35:43;;;;;;;20.98;3.00;;;;;;;9.12;93.04;100782.06;5051920;28;20024;-68
2023/01/29 11:38:15;;;;;;;22.17;2.90;;;;;;;9.20;92.38;100791.84;5050854;28;20024;-68
2023/01/29 11:40:42;;;;;;;20.85;2.72;;;;;;;9.19;92.16;100788.31;5056212;28;20047;-69
2023/01/29 11:43:25;;;;;;;17.67;2.80;;;;;;;9.16;92.04;100791.38;5054553;28;20040;-69
2023/01/29 11:45:56;;;;;;;18.80;3.70;;;;;;;9.15;92.81;100773.63;5056152;28;20124;-68
2023/01/29 11:48:31;;;;;;;22.90;2.78;;;;;;;9.05;92.38;100779.28;5053714;28;20021;-68
2023/01/29 11:51:01;;;;;;;22.73;2.85;;;;;;;8.93;92.89;100770.06;5054975;28;20475;-68
2023/01/29 11:53:51;;;;;;;22.55;2.53;;;;;;;8.91;92.23;100748.81;5055026;28;20707;-69
2023/01/29 11:56:31;;;;;;;23.95;2.88;;;;;;;9.01;92.36;100767.28;5054860;28;20021;-68
2023/01/29 11:58:57;;;;;;;18.70;3.03;;;;;;;9.00;91.99;100767.47;5054391;28;20419;-68
2023/01/29 12:01:35;;;;;;;23.85;3.00;;;;;;;9.03;92.54;100770.59;5056129;28;20391;-68
2023/01/29 12:04:03;;;;;;;19.23;2.60;;;;;;;9.04;92.21;100766.03;5055029;28;20102;-68